Airfield :
LOGIN :

Register | Disclaimer

   EN    FR    IT 

 










Legend :    VFR   Marginal VFR   IFR   Intensive IFR   Very Intensive IFR
Visi :
Ceiling :
>= 8 km
>= 3000ft
5 to 8 km
1000 to 3000 ft
1500m to 5 km
500 to 1000 ft
800 to 1500m
200 to 500 ft
< 800m
< 200 ft
Symbols :   Thunderstorms  Fog  Heavy snow  Heavy precipitations  Wind > 20 kt
SIGMETs :     Misc.  Thunderstorms  Icing  Turbulence  Mountain Waves  Volcanic Ashes






- Airport Elevation : 616 ft
- IATA code : PUF


LFBP - Pau

CURRENT METAR :
  • 250030Z AUTO 26006KT 8000 OVC012 09/07 Q1021 TEMPO OVC008

EXPIRED METARs :
  • 250000Z AUTO 27005KT 9000 OVC012 09/07 Q1022 BECMG OVC008
  • 242330Z AUTO 28007KT 9000 OVC012 09/07 Q1022 BECMG OVC008
  • 242300Z AUTO 26007KT 8000 OVC011 09/07 Q1022 BECMG OVC008
  • 242230Z AUTO 27008KT 7000 OVC010 09/08 Q1023 TEMPO 4000 BR BKN003
  • 242200Z AUTO 27008KT 7000 OVC008 09/08 Q1023 BECMG 4000 BR BKN003

TAF TAF LFBP
Valid from the 25 at 00:00 until the 26 at 00:00 UTC


242300Z 2500/2524 26008KT 9999 OVC012
PROB40
TEMPO 2500/2503 OVC008
BECMG 2505/2507 BKN030
TEMPO 2512/2516 3000 RA OVC006
TEMPO 2512/2524 26015G30KT
TEMPO 2518/2524 4000 SHRA BKN025TCU



MET'MAP, your aeronautical weather chart ! - Copyright ORBIFLY December 2007 - Disclaimer

ORBIFLY MET'MAP TEAM :

Programming & Development : Alexandra Zaïnal
Concept & original design : Baudouin d'Aumeries
Assistance for programming : Marc-Olivier Méhu
Technical & hardware support : Manuel Goepfert

Contact : metmap@orbifly.com




SOURCES & CREDITS :

   NOAA